Time;durP1;ratioP1;P1;durP2;ratioP2;P2;SDS_P1;SDS_P2;PMS_P1;PMS_P2;Temp;Humidity;BMP_temperature;BMP_pressure;BME280_temperature;BME280_humidity;BME280_pressure;Samples;Min_cycle;Max_cycle;Signal;HPM_P1;HPM_P2
2022/02/03 05:25:27;;;;;;;1.73;1.20;;;;;;;7.93;54.18;100798.03;144993;589;6002;-87
2022/02/03 05:44:48;;;;;;;3.20;1.75;;;;;;;7.78;54.27;100829.28;144993;614;6000;-86
2022/02/03 05:47:38;;;;;;;3.47;1.77;;;;;;;7.87;53.96;100834.81;144993;605;6002;-88
2022/02/03 05:50:24;;;;;;;2.62;1.50;;;;;;;7.78;53.24;100861.19;144993;572;6002;-84
2022/02/03 05:54:38;;;;;;;1.80;1.42;;;;;;;7.94;52.75;100841.16;144993;569;6002;-84
2022/02/03 06:01:00;;;;;;;3.00;1.48;;;;;;;7.73;53.38;100869.53;144993;572;6004;-86
2022/02/03 06:04:29;;;;;;;1.80;1.40;;;;;;;7.89;54.04;100884.91;144993;600;6004;-87
2022/02/03 06:07:28;;;;;;;2.28;1.50;;;;;;;7.94;53.27;100880.81;144993;628;6002;-88
2022/02/03 06:16:07;;;;;;;4.70;1.60;;;;;;;8.03;53.84;100906.16;144993;573;6002;-84
2022/02/03 06:29:00;;;;;;;1.80;1.70;;;;;;;8.09;53.66;100952.09;144994;567;5002;-85
2022/02/03 06:31:43;;;;;;;3.53;1.42;;;;;;;7.96;53.81;100935.16;144994;622;5002;-81
2022/02/03 06:36:54;;;;;;;2.72;1.50;;;;;;;8.01;54.04;100956.06;144994;685;5002;-86
2022/02/03 06:39:30;;;;;;;2.33;1.30;;;;;;;7.91;53.91;100960.81;144994;694;5002;-87
2022/02/03 06:42:00;;;;;;;2.60;1.35;;;;;;;7.80;53.30;100968.09;144994;595;5002;-86
2022/02/03 06:44:36;;;;;;;5.97;2.53;;;;;;;7.89;53.62;100962.47;144994;602;5002;-86
2022/02/03 06:47:15;;;;;;;3.58;1.70;;;;;;;7.89;54.11;100971.88;144994;571;5002;-87
2022/02/03 06:49:59;;;;;;;2.47;1.75;;;;;;;8.03;53.59;100990.59;144994;593;5002;-88
2022/02/03 06:53:01;;;;;;;3.25;1.90;;;;;;;7.89;54.25;100985.72;144994;583;5002;-91
2022/02/03 06:58:23;;;;;;;3.20;1.67;;;;;;;8.12;53.63;101004.81;144994;593;5004;-89
2022/02/03 07:01:07;;;;;;;3.03;1.58;;;;;;;8.11;53.36;101009.94;144994;632;5004;-88
2022/02/03 07:03:39;;;;;;;2.97;1.70;;;;;;;8.03;52.51;101006.13;144994;584;5004;-87
2022/02/03 07:06:05;;;;;;;3.60;1.50;;;;;;;8.08;51.89;101020.13;144994;599;5004;-88
2022/02/03 07:08:33;;;;;;;3.87;1.73;;;;;;;8.03;52.44;101022.50;144994;595;5004;-86
2022/02/03 07:11:01;;;;;;;2.33;1.65;;;;;;;8.07;52.99;101024.44;144994;573;5004;-87
2022/02/03 07:13:34;;;;;;;2.55;1.73;;;;;;;8.15;51.90;101033.41;144994;617;5004;-87
2022/02/03 07:16:01;;;;;;;2.35;1.30;;;;;;;8.02;51.83;101033.69;144994;582;5004;-88
2022/02/03 07:18:28;;;;;;;2.90;1.70;;;;;;;8.10;51.77;101046.97;144994;566;5004;-86
2022/02/03 07:20:56;;;;;;;1.65;1.45;;;;;;;8.05;51.47;101051.03;144994;578;5004;-87
2022/02/03 07:23:24;;;;;;;4.25;1.58;;;;;;;8.02;51.23;101056.97;144994;594;5004;-89
2022/02/03 07:25:51;;;;;;;5.57;1.90;;;;;;;8.11;50.96;101056.47;144994;583;5004;-87
2022/02/03 07:28:18;;;;;;;3.50;1.45;;;;;;;7.90;50.98;101052.09;144994;588;5004;-85
2022/02/03 07:30:45;;;;;;;2.05;1.25;;;;;;;8.05;51.33;101062.28;144994;592;5004;-86
2022/02/03 07:33:13;;;;;;;1.87;1.30;;;;;;;8.12;51.19;101072.06;144994;598;5004;-85
2022/02/03 07:35:45;;;;;;;2.08;1.50;;;;;;;8.23;51.77;101069.09;144994;634;5004;-87
2022/02/03 07:38:13;;;;;;;2.15;1.52;;;;;;;8.21;51.45;101063.84;144994;604;5004;-88
2022/02/03 07:41:15;;;;;;;3.28;1.40;;;;;;;8.18;51.97;101071.47;144994;568;5004;-87
2022/02/03 07:43:42;;;;;;;2.75;1.60;;;;;;;8.20;51.75;101069.81;144994;593;5002;-94
2022/02/03 07:46:09;;;;;;;4.07;2.50;;;;;;;8.21;51.84;101073.28;144994;568;5002;-86
2022/02/03 07:48:36;;;;;;;4.22;1.90;;;;;;;8.26;51.89;101072.69;144994;590;5002;-88
2022/02/03 07:51:03;;;;;;;2.10;1.42;;;;;;;8.34;52.03;101083.38;144994;570;5002;-85
2022/02/03 07:53:31;;;;;;;4.50;2.67;;;;;;;8.21;51.54;101089.72;144994;571;5002;-86
2022/02/03 07:55:57;;;;;;;3.92;2.90;;;;;;;8.21;51.18;101087.13;144994;597;5002;-87
2022/02/03 07:58:26;;;;;;;2.95;2.08;;;;;;;8.27;51.64;101087.41;144994;607;5002;-85
2022/02/03 08:00:55;;;;;;;4.07;2.92;;;;;;;8.31;51.57;101091.88;144994;579;5002;-88
2022/02/03 08:03:22;;;;;;;2.90;1.77;;;;;;;8.36;51.25;101105.91;144994;654;5002;-85
2022/02/03 08:05:55;;;;;;;4.28;1.95;;;;;;;8.40;50.99;101100.88;144994;616;5002;-88
2022/02/03 08:08:37;;;;;;;10.48;3.10;;;;;;;8.49;51.18;101111.66;144994;578;5002;-87
2022/02/03 08:11:11;;;;;;;4.32;1.83;;;;;;;8.60;50.78;101101.78;144994;592;5002;-87
2022/02/03 08:14:06;;;;;;;;;;;;;;;;;;;;;
2022/02/03 08:19:52;;;;;;;2.10;1.55;;;;;;;8.68;50.68;101124.59;144994;570;5002;-87
2022/02/03 08:25:16;;;;;;;3.87;2.10;;;;;;;8.57;50.36;101112.88;144994;598;5004;-85
2022/02/03 08:28:05;;;;;;;2.60;2.00;;;;;;;8.50;51.11;101124.66;144994;571;5004;-87
2022/02/03 08:30:46;;;;;;;3.10;1.85;;;;;;;8.56;51.40;101123.16;144994;563;5002;-90
2022/02/03 08:33:20;;;;;;;3.53;1.73;;;;;;;8.52;50.50;101133.38;144994;579;5002;-87
2022/02/03 08:35:50;;;;;;;2.85;1.80;;;;;;;8.55;50.76;101136.94;144994;575;5002;-88
2022/02/03 08:38:38;;;;;;;4.10;1.60;;;;;;;8.49;50.74;101133.22;144994;573;5002;-86
2022/02/03 08:41:04;;;;;;;2.25;1.80;;;;;;;8.59;50.91;101138.81;144994;695;5002;-88
2022/02/03 08:43:33;;;;;;;3.28;1.70;;;;;;;8.69;50.51;101148.78;144994;577;5002;-87
2022/02/03 08:46:01;;;;;;;4.43;1.60;;;;;;;8.76;51.15;101157.69;144994;617;5002;-88
2022/02/03 08:48:29;;;;;;;2.85;1.70;;;;;;;8.63;50.72;101153.69;144994;577;5002;-88
2022/02/03 08:50:57;;;;;;;3.17;2.28;;;;;;;8.77;51.30;101164.66;144994;594;5002;-88
2022/02/03 08:53:33;;;;;;;5.10;3.37;;;;;;;8.74;51.42;101159.34;144994;605;5002;-87
2022/02/03 08:56:16;;;;;;;6.07;3.90;;;;;;;8.72;51.79;101172.22;144994;577;5002;-90
2022/02/03 09:33:58;;;;;;;3.37;1.80;;;;;;;8.99;50.56;101208.78;144994;572;5002;-86
2022/02/03 09:41:18;;;;;;;4.22;2.00;;;;;;;8.85;51.04;101199.53;144994;584;5004;-85
2022/02/03 09:55:05;;;;;;;3.85;2.42;;;;;;;8.93;50.51;101218.88;144994;572;5004;-86
2022/02/03 09:57:51;;;;;;;5.07;2.05;;;;;;;8.92;50.68;101219.69;144994;595;5004;-86
2022/02/03 10:00:38;;;;;;;3.58;1.87;;;;;;;8.81;50.16;101224.41;144994;565;5004;-86
2022/02/03 10:03:12;;;;;;;3.78;2.05;;;;;;;9.08;49.64;101227.34;144994;622;5004;-88
2022/02/03 10:06:07;;;;;;;3.27;2.07;;;;;;;9.15;50.42;101230.19;144994;583;5004;-87
2022/02/03 10:08:35;;;;;;;3.85;1.90;;;;;;;9.16;50.37;101226.75;144994;600;5002;-86
2022/02/03 10:11:30;;;;;;;5.90;1.80;;;;;;;9.02;50.18;101244.28;144994;603;5002;-89
2022/02/03 10:14:03;;;;;;;3.40;1.70;;;;;;;9.08;50.28;101244.56;144994;573;5004;-90
2022/02/03 10:16:40;;;;;;;3.30;1.75;;;;;;;9.06;50.07;101236.72;144994;569;5004;-88
2022/02/03 10:19:11;;;;;;;4.70;2.70;;;;;;;9.24;50.92;101241.84;144993;608;5004;-87
2022/02/03 10:21:40;;;;;;;6.40;2.87;;;;;;;9.27;50.19;101251.44;144994;573;5002;-87
2022/02/03 10:24:08;;;;;;;5.03;1.80;;;;;;;9.42;49.79;101252.09;144994;642;5002;-88
2022/02/03 10:26:45;;;;;;;4.43;2.20;;;;;;;9.41;49.93;101249.44;144994;570;5002;-87
2022/02/03 10:29:27;;;;;;;4.78;1.80;;;;;;;9.47;49.54;101256.63;144994;657;5002;-88
2022/02/03 10:31:54;;;;;;;4.20;1.92;;;;;;;9.67;49.01;101245.38;144994;575;5002;-86
2022/02/03 10:34:27;;;;;;;3.15;1.95;;;;;;;9.61;48.69;101240.81;144993;632;5002;-86
2022/02/03 10:40:09;;;;;;;3.42;2.30;;;;;;;9.61;49.11;101250.31;144994;659;5004;-85
2022/02/03 10:43:11;;;;;;;3.60;2.33;;;;;;;9.61;49.48;101242.53;144994;742;5004;-87
2022/02/03 10:45:55;;;;;;;4.05;2.10;;;;;;;9.49;49.70;101253.25;144994;575;5002;-88
2022/02/03 10:51:30;;;;;;;4.90;3.28;;;;;;;9.39;49.76;101249.38;144994;589;4569;-87
2022/02/03 10:54:35;;;;;;;3.45;2.10;;;;;;;9.33;50.43;101253.41;144994;585;4574;-87
2022/02/03 11:03:02;;;;;;;4.32;2.20;;;;;;;9.38;50.23;101255.38;144992;572;6002;-87
2022/02/03 11:06:04;;;;;;;3.30;2.12;;;;;;;9.39;50.43;101257.16;144992;584;6002;-86
2022/02/03 11:08:42;;;;;;;2.62;1.62;;;;;;;9.43;50.41;101253.87;144992;575;6003;-87
2022/02/03 11:11:21;;;;;;;7.12;3.28;;;;;;;9.42;49.92;101259.88;144992;605;6002;-85
2022/02/03 11:16:30;;;;;;;3.95;2.15;;;;;;;9.75;50.16;101261.22;144992;589;6002;-85
2022/02/03 11:19:04;;;;;;;3.92;2.10;;;;;;;9.67;49.89;101258.34;144992;594;6002;-87
2022/02/03 11:21:44;;;;;;;3.28;1.70;;;;;;;9.86;49.96;101266.88;144992;594;6002;-87
2022/02/03 11:24:25;;;;;;;2.72;1.85;;;;;;;9.71;50.16;101260.22;144992;598;6002;-88
2022/02/03 11:33:48;;;;;;;4.82;2.50;;;;;;;10.05;48.94;101252.94;144992;604;6004;-86
2022/02/03 11:39:37;;;;;;;4.53;2.00;;;;;;;10.33;47.69;101255.84;144992;581;6004;-86
2022/02/03 11:42:24;;;;;;;5.50;1.90;;;;;;;10.36;47.63;101249.03;144992;630;6002;-87
2022/02/03 11:48:36;;;;;;;3.72;2.35;;;;;;;10.76;47.65;101250.53;144992;578;6004;-87
2022/02/03 12:14:58;;;;;;;5.30;2.05;;;;;;;9.85;47.98;101262.53;144992;595;6002;-86
2022/02/03 12:17:34;;;;;;;4.30;1.48;;;;;;;9.98;47.47;101254.41;144992;562;6004;-87
2022/02/03 12:20:16;;;;;;;3.75;1.20;;;;;;;9.85;47.47;101262.53;144992;603;6004;-89
2022/02/03 12:23:01;;;;;;;2.37;1.25;;;;;;;9.81;46.54;101261.50;144992;568;6005;-86
2022/02/03 12:25:59;;;;;;;2.75;1.27;;;;;;;9.90;47.45;101267.06;144991;606;6000;-87
2022/02/03 12:37:13;;;;;;;4.07;1.60;;;;;;;10.87;45.43;101276.09;144992;589;6004;-86
2022/02/03 12:39:50;;;;;;;2.92;1.62;;;;;;;11.05;44.52;101282.78;144992;570;6004;-87
2022/02/03 12:42:52;;;;;;;3.67;1.95;;;;;;;10.85;43.65;101275.16;144992;642;6004;-86
2022/02/03 12:45:31;;;;;;;3.00;1.75;;;;;;;10.84;44.31;101293.28;144992;678;6004;-87
2022/02/03 12:48:01;;;;;;;4.72;1.50;;;;;;;10.62;44.09;101291.56;144992;609;6004;-86
2022/02/03 12:50:39;;;;;;;3.37;1.30;;;;;;;10.83;44.90;101307.06;144992;614;6004;-87
2022/02/03 12:53:06;;;;;;;3.67;1.65;;;;;;;10.75;44.13;101290.31;144992;682;6004;-84
2022/02/03 12:55:39;;;;;;;7.43;2.47;;;;;;;10.59;43.93;101297.50;144992;596;6004;-86
2022/02/03 12:58:13;;;;;;;3.15;1.40;;;;;;;10.43;44.36;101297.75;144991;587;6000;-85
2022/02/03 13:00:57;;;;;;;5.10;1.62;;;;;;;10.35;44.95;101284.44;144992;569;6002;-86
2022/02/03 13:06:23;;;;;;;2.67;1.40;;;;;;;10.31;45.00;101301.59;144992;581;6008;-87
2022/02/03 13:08:57;;;;;;;3.17;1.80;;;;;;;10.19;44.34;101310.59;144992;581;6004;-87
2022/02/03 13:14:39;;;;;;;2.12;1.40;;;;;;;9.85;44.93;101306.59;144992;594;6002;-85
2022/02/03 13:17:14;;;;;;;2.80;1.20;;;;;;;9.80;44.97;101316.78;144992;616;6002;-86
2022/02/03 13:19:58;;;;;;;;;;;;;;;9.82;45.35;101316.84;144997;906;6002;-85
2022/02/03 13:22:34;;;;;;;3.33;1.42;;;;;;;9.72;45.38;101311.28;144997;609;6003;-88
2022/02/03 13:25:08;;;;;;;2.03;1.40;;;;;;;9.68;45.80;101314.53;144991;680;6002;-84
2022/02/03 13:30:47;;;;;;;2.45;1.55;;;;;;;9.62;45.77;101322.03;144992;609;6004;-85
2022/02/03 13:33:24;;;;;;;3.58;1.52;;;;;;;9.67;46.01;101314.47;144992;593;6004;-85
2022/02/03 13:36:03;;;;;;;3.92;1.70;;;;;;;9.69;46.59;101325.78;144991;611;6000;-85
2022/02/03 13:39:22;;;;;;;2.70;1.50;;;;;;;9.93;46.33;101326.84;144992;578;6002;-86
2022/02/03 13:42:19;;;;;;;2.35;1.60;;;;;;;10.09;43.77;101332.69;144992;567;6004;-86
2022/02/03 13:45:22;;;;;;;2.10;1.40;;;;;;;10.21;43.00;101320.19;144992;585;6004;-86
2022/02/03 13:48:09;;;;;;;4.05;1.52;;;;;;;10.37;42.49;101331.22;144992;607;6002;-85
2022/02/03 13:50:55;;;;;;;2.47;1.40;;;;;;;10.41;42.51;101323.62;144992;579;6002;-83
2022/02/03 13:53:45;;;;;;;2.15;1.30;;;;;;;10.36;42.99;101330.34;144992;594;6002;-87
2022/02/03 14:12:44;;;;;;;2.85;1.52;;;;;;;10.39;43.70;101347.75;144992;574;6004;-87
2022/02/03 14:20:23;;;;;;;3.50;2.30;;;;;;;10.49;43.58;101362.87;144992;649;6002;-84
2022/02/03 14:23:11;;;;;;;4.00;1.67;;;;;;;10.32;42.90;101369.94;144992;667;6004;-85
2022/02/03 14:28:27;;;;;;;2.30;1.50;;;;;;;10.44;43.39;101372.19;144992;588;6004;-85
2022/02/03 14:30:56;;;;;;;2.40;1.50;;;;;;;10.45;44.18;101392.13;144992;598;6004;-86
2022/02/03 14:33:33;;;;;;;3.67;1.60;;;;;;;10.29;43.65;101390.56;144992;577;6004;-86
2022/02/03 14:36:13;;;;;;;1.50;1.27;;;;;;;10.46;43.32;101384.41;144992;644;6004;-85
2022/02/03 14:38:50;;;;;;;2.28;1.55;;;;;;;10.28;42.31;101394.00;144992;585;6004;-86
2022/02/03 14:41:34;;;;;;;1.80;1.40;;;;;;;10.28;42.53;101387.09;144992;605;6004;-88
2022/02/03 14:44:02;;;;;;;2.40;1.35;;;;;;;10.29;43.09;101396.66;144992;588;6004;-88
2022/02/03 14:46:29;;;;;;;2.78;1.50;;;;;;;10.48;42.88;101390.56;144991;588;6000;-86
2022/02/03 14:49:00;;;;;;;2.40;1.40;;;;;;;10.30;43.05;101401.00;144992;623;6002;-84
2022/02/03 14:51:42;;;;;;;3.55;1.70;;;;;;;10.37;42.76;101401.31;144992;621;6002;-87
2022/02/03 15:00:00;;;;;;;4.18;1.77;;;;;;;10.07;44.25;101406.94;144992;623;6002;-84
2022/02/03 15:02:40;;;;;;;3.28;2.00;;;;;;;10.23;43.91;101417.16;144992;596;6002;-86
2022/02/03 15:05:12;;;;;;;2.72;1.67;;;;;;;10.19;43.87;101407.47;144992;601;6002;-89
2022/02/03 15:07:41;;;;;;;2.58;1.70;;;;;;;10.26;44.25;101406.91;144992;582;6002;-87
2022/02/03 15:10:40;;;;;;;5.95;3.67;;;;;;;10.33;44.35;101408.09;144992;660;6002;-87
2022/02/03 15:15:47;;;;;;;3.47;1.90;;;;;;;10.05;44.23;101401.69;144992;616;6002;-84
2022/02/03 15:18:15;;;;;;;4.50;1.85;;;;;;;10.03;44.33;101421.50;144992;580;6002;-86
2022/02/03 15:20:43;;;;;;;4.37;1.70;;;;;;;9.93;44.17;101435.78;144992;649;6002;-86
2022/02/03 15:23:10;;;;;;;1.55;1.00;;;;;;;9.74;43.50;101420.22;144992;565;6002;-83
2022/02/03 15:25:36;;;;;;;2.28;1.12;;;;;;;9.67;43.35;101413.91;144992;575;6002;-87
2022/02/03 15:28:06;;;;;;;2.90;1.10;;;;;;;9.62;43.89;101431.84;144992;661;6002;-85
2022/02/03 15:30:35;;;;;;;3.12;1.42;;;;;;;9.58;43.90;101439.41;144992;587;6002;-86
2022/02/03 15:33:10;;;;;;;2.17;1.30;;;;;;;9.61;43.86;101434.34;144992;604;6002;-89
2022/02/03 15:35:50;;;;;;;2.60;1.70;;;;;;;9.66;44.43;101442.34;144992;615;6002;-86
2022/02/03 15:38:21;;;;;;;2.97;1.60;;;;;;;9.55;43.92;101447.91;144992;591;6002;-86
2022/02/03 15:40:50;;;;;;;2.53;1.42;;;;;;;9.50;43.94;101445.94;144992;587;6002;-85
2022/02/03 15:43:36;;;;;;;2.45;1.40;;;;;;;9.48;43.71;101455.31;144992;570;6002;-88
2022/02/03 15:46:03;;;;;;;3.17;1.62;;;;;;;9.48;44.12;101448.47;144992;607;6002;-89
2022/02/03 15:48:44;;;;;;;2.45;1.80;;;;;;;9.48;44.21;101453.66;144992;611;6002;-93
2022/02/03 15:57:15;;;;;;;;;;;;;;;;;;;;;
2022/02/03 16:19:03;;;;;;;5.35;2.35;;;;;;;9.54;45.09;101516.09;144992;594;6002;-86
2022/02/03 16:21:38;;;;;;;3.55;2.50;;;;;;;9.67;44.57;101517.59;144992;577;6011;-89
2022/02/03 16:24:22;;;;;;;2.72;2.20;;;;;;;9.68;44.23;101532.31;144992;619;6002;-91
2022/02/03 16:55:11;;;;;;;2.80;1.80;;;;;;;9.69;43.66;101552.25;144992;611;6002;-91
2022/02/03 16:57:42;;;;;;;2.83;1.83;;;;;;;9.69;43.71;101549.66;144992;646;6002;-88
2022/02/03 17:00:22;;;;;;;2.20;2.00;;;;;;;9.75;43.89;101562.91;144992;579;6002;-88
2022/02/03 17:02:51;;;;;;;3.53;2.20;;;;;;;9.77;44.36;101569.03;144992;570;6002;-86
2022/02/03 17:05:18;;;;;;;3.60;2.83;;;;;;;9.54;46.01;101564.47;144992;669;6002;-88
2022/02/03 17:07:44;;;;;;;4.22;2.10;;;;;;;9.58;45.18;101574.19;144992;581;6002;-89
2022/02/03 17:10:11;;;;;;;1.85;1.75;;;;;;;9.71;45.30;101570.47;144993;577;6002;-87
2022/02/03 17:12:38;;;;;;;2.47;1.95;;;;;;;9.68;45.16;101576.37;144993;575;6002;-87
2022/02/03 17:15:06;;;;;;;3.75;2.20;;;;;;;9.83;45.44;101585.69;144993;607;6002;-87
2022/02/03 17:17:33;;;;;;;2.58;2.10;;;;;;;9.65;45.58;101583.13;144993;576;6002;-88
2022/02/03 17:20:01;;;;;;;2.67;2.03;;;;;;;9.53;45.51;101586.94;144993;621;6002;-87
2022/02/03 17:22:36;;;;;;;2.78;2.20;;;;;;;9.56;45.34;101583.56;144993;623;6002;-85
2022/02/03 17:28:14;;;;;;;2.85;2.08;;;;;;;9.50;45.91;101597.16;144993;588;6000;-87
2022/02/03 17:30:56;;;;;;;4.70;1.95;;;;;;;9.38;46.49;101600.00;144993;675;6002;-87
2022/02/03 17:53:40;;;;;;;3.40;1.90;;;;;;;9.41;45.47;101630.37;144992;676;6000;-88
2022/02/03 18:10:06;;;;;;;4.30;2.78;;;;;;;9.38;45.47;101675.16;144993;571;6000;-88
2022/02/03 18:27:41;;;;;;;3.50;2.37;;;;;;;9.31;45.44;101691.25;144993;589;6000;-88
2022/02/03 18:29:59;;;;;;;3.92;2.20;;;;;;;9.08;45.47;101703.91;144993;567;6004;-90
2022/02/03 18:35:32;;;;;;;3.55;2.62;;;;;;;9.25;44.35;101703.88;144993;583;6005;-85
2022/02/03 18:50:11;;;;;;;;;;;;;;;;;;;;;
2022/02/03 18:53:03;;;;;;;5.82;2.95;;;;;;;9.01;43.74;101716.47;144994;586;5002;-90
2022/02/03 18:55:57;;;;;;;3.58;2.50;;;;;;;9.15;43.52;101724.97;144994;567;5004;-88
2022/02/03 18:59:00;;;;;;;3.58;2.70;;;;;;;8.89;43.46;101720.19;144994;581;5002;-89
2022/02/03 19:01:51;;;;;;;3.85;2.70;;;;;;;9.01;44.45;101714.75;144994;603;5004;-87
2022/02/03 19:23:02;;;;;;;5.12;2.65;;;;;;;8.95;41.83;101718.72;144994;574;5002;-84
2022/02/03 20:07:03;;;;;;;5.05;2.10;;;;;;;8.47;44.42;101730.03;144994;604;5002;-88
2022/02/03 20:12:29;;;;;;;4.80;2.50;;;;;;;8.52;43.56;101714.75;144993;573;5002;-87
2022/02/03 20:15:01;;;;;;;3.12;2.05;;;;;;;8.52;43.68;101731.16;144994;654;5002;-85
2022/02/03 20:17:31;;;;;;;3.62;2.30;;;;;;;8.47;43.21;101717.09;144994;589;5002;-87
2022/02/03 20:19:58;;;;;;;4.00;2.03;;;;;;;8.35;43.65;101727.63;144994;597;5002;-85
2022/02/03 20:22:38;;;;;;;5.53;2.10;;;;;;;8.31;43.42;101715.31;144994;563;5002;-90
2022/02/03 20:33:21;;;;;;;2.65;2.00;;;;;;;8.38;43.63;101713.06;144994;593;5002;-91
2022/02/03 20:35:55;;;;;;;3.28;2.10;;;;;;;8.51;43.40;101700.00;144994;584;5002;-89
2022/02/03 20:38:28;;;;;;;2.92;2.20;;;;;;;8.49;43.38;101697.34;144994;585;5002;-88
2022/02/03 20:40:58;;;;;;;3.20;2.22;;;;;;;8.48;43.60;101700.75;144994;573;5002;-87
2022/02/03 20:43:27;;;;;;;2.85;2.15;;;;;;;8.42;43.08;101697.81;144994;575;5002;-87
2022/02/03 20:46:01;;;;;;;4.35;2.50;;;;;;;8.33;43.21;101708.53;144994;579;5002;-87
2022/02/03 20:48:49;;;;;;;2.85;2.17;;;;;;;8.26;43.49;101703.84;144993;605;5002;-87
2022/02/03 20:51:29;;;;;;;2.45;2.10;;;;;;;8.25;42.92;101720.16;144994;688;5002;-85
2022/02/03 20:54:07;;;;;;;5.10;1.98;;;;;;;8.14;42.90;101714.41;144994;591;5002;-84
2022/02/03 20:56:47;;;;;;;2.85;1.70;;;;;;;8.27;42.39;101721.16;144994;586;5002;-89
2022/02/03 20:59:28;;;;;;;2.55;1.92;;;;;;;8.34;42.35;101737.91;144994;603;5002;-87
2022/02/03 21:02:06;;;;;;;2.97;1.98;;;;;;;8.27;41.87;101733.19;144994;589;5002;-87
2022/02/03 21:04:57;;;;;;;3.12;1.95;;;;;;;8.22;41.83;101751.03;144994;564;5002;-87
2022/02/03 21:07:28;;;;;;;2.95;2.28;;;;;;;8.24;41.88;101746.84;144994;583;5004;-87
2022/02/03 21:10:00;;;;;;;3.03;2.10;;;;;;;8.27;42.01;101753.88;144994;601;5004;-87
2022/02/03 21:12:37;;;;;;;3.58;2.10;;;;;;;8.26;42.21;101759.88;144994;585;5004;-86
2022/02/03 21:15:07;;;;;;;3.33;2.03;;;;;;;8.53;42.28;101769.19;144994;603;5004;-85
2022/02/03 21:17:35;;;;;;;4.70;2.20;;;;;;;8.59;42.08;101773.81;144994;603;5004;-84
2022/02/03 21:20:12;;;;;;;3.40;2.55;;;;;;;8.71;41.62;101773.59;144994;637;5004;-88
2022/02/03 21:22:41;;;;;;;3.20;2.35;;;;;;;8.85;41.64;101782.97;144994;598;5004;-87
2022/02/03 21:25:33;;;;;;;3.90;2.20;;;;;;;8.64;41.61;101774.94;144994;567;5004;-87
2022/02/03 21:28:24;;;;;;;6.72;2.50;;;;;;;8.59;42.27;101776.41;144994;587;5004;-87
2022/02/03 21:30:55;;;;;;;3.50;1.95;;;;;;;8.70;41.98;101776.97;144994;580;5002;-88
2022/02/03 21:33:32;;;;;;;4.35;1.95;;;;;;;8.44;42.99;101785.91;144994;597;5002;-87
2022/02/03 21:36:11;;;;;;;4.28;2.50;;;;;;;8.29;43.45;101788.50;144994;633;5002;-84
2022/02/03 21:38:50;;;;;;;3.35;2.10;;;;;;;8.37;43.29;101792.41;144994;569;5002;-86
2022/02/03 21:46:32;;;;;;;2.92;2.05;;;;;;;8.49;43.31;101816.37;144994;590;5002;-83
2022/02/03 21:49:08;;;;;;;3.83;1.90;;;;;;;8.35;43.42;101810.44;144994;646;5002;-88
2022/02/03 21:51:42;;;;;;;2.78;1.83;;;;;;;8.25;43.37;101817.56;144994;611;5002;-86
2022/02/03 21:54:12;;;;;;;3.35;1.70;;;;;;;8.18;42.82;101824.09;144994;673;5002;-85
2022/02/03 22:01:58;;;;;;;2.55;1.70;;;;;;;8.15;42.74;101818.75;144994;579;5002;-88
2022/02/03 22:07:05;;;;;;;3.05;1.55;;;;;;;8.23;42.74;101835.59;144994;584;5002;-87
2022/02/03 22:17:27;;;;;;;3.12;1.77;;;;;;;8.22;42.87;101853.63;144994;604;5002;-90
2022/02/03 22:20:03;;;;;;;3.15;1.90;;;;;;;8.42;42.94;101834.94;144994;588;5002;-85
2022/02/03 22:26:07;;;;;;;1.98;1.70;;;;;;;8.37;42.61;101846.75;144994;605;5002;-85
2022/02/03 22:29:16;;;;;;;2.28;1.80;;;;;;;8.45;42.13;101840.34;144994;569;5004;-85
2022/02/03 22:49:14;;;;;;;2.83;1.70;;;;;;;8.58;42.08;101833.25;144994;564;5002;-86
2022/02/03 22:51:47;;;;;;;2.72;1.52;;;;;;;8.26;41.80;101840.94;144994;637;5002;-86
2022/02/03 22:54:18;;;;;;;2.05;1.42;;;;;;;8.40;42.50;101835.66;144994;628;5002;-86
2022/02/03 22:56:47;;;;;;;3.53;1.80;;;;;;;8.50;42.32;101827.66;144994;576;5002;-85
2022/02/03 23:02:20;;;;;;;3.25;1.90;;;;;;;8.21;42.24;101831.13;144994;597;5004;-84
2022/02/03 23:04:51;;;;;;;2.90;1.50;;;;;;;8.03;41.98;101829.28;144994;601;5004;-86
2022/02/03 23:07:36;;;;;;;2.10;1.50;;;;;;;8.10;42.19;101846.94;144994;660;5004;-88
2022/02/03 23:10:19;;;;;;;1.83;1.40;;;;;;;8.00;42.27;101844.59;144994;591;5005;-86
2022/02/03 23:13:08;;;;;;;2.80;1.70;;;;;;;8.05;42.04;101865.56;144994;601;5004;-84
2022/02/03 23:15:48;;;;;;;3.03;1.60;;;;;;;8.07;42.49;101857.09;144994;633;5004;-85
2022/02/03 23:18:41;;;;;;;3.53;1.70;;;;;;;8.07;42.16;101857.09;144994;587;5005;-86
2022/02/03 23:21:40;;;;;;;3.35;1.70;;;;;;;8.12;42.19;101867.72;144994;576;5004;-85
2022/02/03 23:24:03;;;;;;;2.42;1.65;;;;;;;8.14;41.77;101877.37;144994;598;4567;-86
2022/02/03 23:26:34;;;;;;;2.53;1.60;;;;;;;8.15;42.13;101878.25;144994;592;4572;-85
2022/02/03 23:29:05;;;;;;;1.60;1.35;;;;;;;8.39;42.03;101881.34;144993;569;6002;-85
2022/02/03 23:32:00;;;;;;;2.50;1.52;;;;;;;8.42;41.76;101888.41;144992;592;6002;-85
2022/02/03 23:34:28;;;;;;;1.73;1.20;;;;;;;8.15;42.06;101881.72;144992;583;6002;-87
2022/02/03 23:36:55;;;;;;;2.42;1.35;;;;;;;8.23;41.22;101891.63;144992;571;6002;-87
2022/02/03 23:43:17;;;;;;;3.45;1.67;;;;;;;7.98;41.64;101893.66;144992;581;6004;-86
2022/02/03 23:45:33;;;;;;;;;;;;;;;7.93;41.51;101901.94;144997;477;6002;-85
